首页
METAR-TAF:

METAR-TAF

机场 :

科马亚瓜, 洪都拉斯

纬度: 14-23N, 经度: 087-37W, 海拔: 628米

当前天气观测

该预报发布于1小时和5分钟前的02:58 UTC
风速15节,风向,有时为21节阵风
温度 24°C
湿度 78%
气压 1019 hPa
能见度10公里或以上
少量云层高于5500英尺
多云层高于8000英尺

METAR: MHSC 210258Z AUTO 36015G21KT 9999 FEW055 BKN080 24/20 A3008 RMK AO2 SLP147 T02420197 52033 $

时间: 22:03 (04:03 UTC)

预报

预报有效从20日的 21点(UTC)到 22日的 03点(UTC)
风速10节,风向,有时为15节阵风
能见度10公里或以上
散云层高于7000英尺
成为
从 21日的 01点(UTC)到 21日的 02点(UTC)
风速6节,风向多变
能见度10公里或以上
少量云层高于10000英尺
成为
从 21日的 06点(UTC)到 21日的 07点(UTC)
风速6节,风向多变
能见度10公里或以上
散云层高于4000英尺
成为
从 21日的 13点(UTC)到 21日的 14点(UTC)
风速9节,风向
能见度10公里或以上
少量云层高于10000英尺
短暂存在
从 21日的 17点(UTC)到 21日的 23点(UTC)
风速10节,风向,有时为15节阵风
成为
从 22日的 01点(UTC)到 22日的 02点(UTC)
风速6节,风向多变
能见度10公里或以上
散云层高于2000英尺

TAF: MHSC 2021/2203 09010G15KT 9999 SCT070 QNH2990INS BECMG 2101/2102 VRB06KT 9999 FEW100 QNH2996INS BECMG 2106/2107 VRB06KT 9999 SCT040 QNH3002INS BECMG 2113/2114 01009KT 9999 FEW100 QNH2993INS TEMPO 2117/2123 01010G15KT BECMG 2201/2202 VRB06KT 9999 SCT020 QNH2998INS TX34/2021Z TN18/2111Z

超过4000个机场的气象观测和天气预报(METAR&TAF报告)。

可查询的气象台以黄色和红色小点在地图上表示。

将鼠标移到小点上方,可查看气象台名称。

然后点击查看天气观测和预报。

如需切换地图:点击带黑十字的绿色按钮放大地图;点击带横线的绿色按钮缩小地图;或者点击绿色箭头查看邻近地区的地图。


METAR-TAF: